sensor_id;sensor_type;location;lat;lon;timestamp;P1;durP1;ratioP1;P2;durP2;ratioP2
67804;SDS011;54603;45.638;11.714;2023-04-29T00:00:32;2.10;;;1.80;;
67804;SDS011;54603;45.638;11.714;2023-04-29T00:02:57;2.10;;;1.90;;
67804;SDS011;54603;45.638;11.714;2023-04-29T00:05:23;4.70;;;3.00;;
67804;SDS011;54603;45.638;11.714;2023-04-29T00:07:49;4.10;;;2.60;;
67804;SDS011;54603;45.638;11.714;2023-04-29T00:10:15;3.60;;;3.00;;
67804;SDS011;54603;45.638;11.714;2023-04-29T00:12:41;2.30;;;2.00;;
67804;SDS011;54603;45.638;11.714;2023-04-29T00:15:07;4.70;;;1.60;;
67804;SDS011;54603;45.638;11.714;2023-04-29T00:17:33;2.00;;;1.70;;
67804;SDS011;54603;45.638;11.714;2023-04-29T00:19:58;2.80;;;1.90;;
67804;SDS011;54603;45.638;11.714;2023-04-29T00:22:24;1.70;;;1.60;;
67804;SDS011;54603;45.638;11.714;2023-04-29T00:24:50;2.50;;;1.70;;
67804;SDS011;54603;45.638;11.714;2023-04-29T00:27:17;2.90;;;1.40;;
67804;SDS011;54603;45.638;11.714;2023-04-29T00:29:42;3.20;;;1.50;;
67804;SDS011;54603;45.638;11.714;2023-04-29T00:32:08;4.10;;;1.60;;
67804;SDS011;54603;45.638;11.714;2023-04-29T00:34:34;2.10;;;1.60;;
67804;SDS011;54603;45.638;11.714;2023-04-29T00:36:59;3.90;;;2.00;;
67804;SDS011;54603;45.638;11.714;2023-04-29T00:39:25;4.10;;;2.00;;
67804;SDS011;54603;45.638;11.714;2023-04-29T00:41:51;3.70;;;2.90;;
67804;SDS011;54603;45.638;11.714;2023-04-29T00:44:17;2.90;;;2.30;;
67804;SDS011;54603;45.638;11.714;2023-04-29T00:46:42;3.30;;;1.90;;
67804;SDS011;54603;45.638;11.714;2023-04-29T00:49:08;2.90;;;1.80;;
67804;SDS011;54603;45.638;11.714;2023-04-29T00:51:35;2.50;;;1.70;;
67804;SDS011;54603;45.638;11.714;2023-04-29T00:54:02;2.40;;;1.70;;
67804;SDS011;54603;45.638;11.714;2023-04-29T00:56:32;2.90;;;2.20;;
67804;SDS011;54603;45.638;11.714;2023-04-29T00:59:00;2.50;;;2.00;;
67804;SDS011;54603;45.638;11.714;2023-04-29T01:01:29;4.30;;;2.40;;
67804;SDS011;54603;45.638;11.714;2023-04-29T01:03:55;3.40;;;1.90;;
67804;SDS011;54603;45.638;11.714;2023-04-29T01:11:41;2.60;;;2.30;;
67804;SDS011;54603;45.638;11.714;2023-04-29T01:14:20;2.30;;;1.90;;
67804;SDS011;54603;45.638;11.714;2023-04-29T01:16:47;3.40;;;1.60;;
67804;SDS011;54603;45.638;11.714;2023-04-29T01:22:05;4.20;;;2.80;;
67804;SDS011;54603;45.638;11.714;2023-04-29T01:24:31;3.60;;;2.40;;
67804;SDS011;54603;45.638;11.714;2023-04-29T01:26:58;2.10;;;1.90;;
67804;SDS011;54603;45.638;11.714;2023-04-29T01:29:40;3.10;;;2.20;;
67804;SDS011;54603;45.638;11.714;2023-04-29T01:35:21;3.60;;;1.80;;
67804;SDS011;54603;45.638;11.714;2023-04-29T01:41:38;3.10;;;2.40;;
67804;SDS011;54603;45.638;11.714;2023-04-29T01:44:03;2.30;;;2.00;;
67804;SDS011;54603;45.638;11.714;2023-04-29T01:46:29;2.90;;;2.00;;
67804;SDS011;54603;45.638;11.714;2023-04-29T01:48:55;3.20;;;1.90;;
67804;SDS011;54603;45.638;11.714;2023-04-29T01:51:21;3.40;;;2.20;;
67804;SDS011;54603;45.638;11.714;2023-04-29T01:53:47;3.50;;;2.60;;
67804;SDS011;54603;45.638;11.714;2023-04-29T01:56:13;3.00;;;1.80;;
67804;SDS011;54603;45.638;11.714;2023-04-29T01:58:38;4.70;;;2.00;;
67804;SDS011;54603;45.638;11.714;2023-04-29T02:01:04;2.50;;;2.30;;
67804;SDS011;54603;45.638;11.714;2023-04-29T02:03:31;2.70;;;2.00;;
67804;SDS011;54603;45.638;11.714;2023-04-29T02:05:56;2.20;;;2.00;;
67804;SDS011;54603;45.638;11.714;2023-04-29T02:08:23;3.00;;;2.20;;
67804;SDS011;54603;45.638;11.714;2023-04-29T02:10:55;2.40;;;2.20;;
67804;SDS011;54603;45.638;11.714;2023-04-29T02:13:22;2.60;;;1.60;;
67804;SDS011;54603;45.638;11.714;2023-04-29T02:15:48;2.80;;;1.90;;
67804;SDS011;54603;45.638;11.714;2023-04-29T02:18:14;2.40;;;2.00;;
67804;SDS011;54603;45.638;11.714;2023-04-29T02:20:40;2.70;;;2.00;;
67804;SDS011;54603;45.638;11.714;2023-04-29T02:23:07;2.80;;;2.00;;
67804;SDS011;54603;45.638;11.714;2023-04-29T02:25:33;3.90;;;2.00;;
67804;SDS011;54603;45.638;11.714;2023-04-29T02:27:58;2.90;;;2.00;;
67804;SDS011;54603;45.638;11.714;2023-04-29T02:30:24;2.30;;;1.80;;
67804;SDS011;54603;45.638;11.714;2023-04-29T02:32:50;2.50;;;2.20;;
67804;SDS011;54603;45.638;11.714;2023-04-29T02:35:17;3.20;;;2.40;;
67804;SDS011;54603;45.638;11.714;2023-04-29T02:37:42;2.30;;;2.00;;
67804;SDS011;54603;45.638;11.714;2023-04-29T02:40:09;2.10;;;1.90;;
67804;SDS011;54603;45.638;11.714;2023-04-29T02:42:35;3.50;;;2.40;;
67804;SDS011;54603;45.638;11.714;2023-04-29T02:45:02;2.40;;;2.20;;
67804;SDS011;54603;45.638;11.714;2023-04-29T02:47:28;4.20;;;2.40;;
67804;SDS011;54603;45.638;11.714;2023-04-29T02:49:53;2.90;;;2.20;;
67804;SDS011;54603;45.638;11.714;2023-04-29T02:52:19;4.80;;;2.60;;
67804;SDS011;54603;45.638;11.714;2023-04-29T02:54:44;3.70;;;2.20;;
67804;SDS011;54603;45.638;11.714;2023-04-29T02:57:10;4.20;;;1.90;;
67804;SDS011;54603;45.638;11.714;2023-04-29T02:59:36;2.80;;;2.00;;
67804;SDS011;54603;45.638;11.714;2023-04-29T03:02:02;3.00;;;2.00;;
67804;SDS011;54603;45.638;11.714;2023-04-29T03:04:27;4.90;;;1.90;;
67804;SDS011;54603;45.638;11.714;2023-04-29T03:06:56;2.90;;;2.20;;
67804;SDS011;54603;45.638;11.714;2023-04-29T03:09:22;2.30;;;2.10;;
67804;SDS011;54603;45.638;11.714;2023-04-29T03:11:48;2.90;;;2.50;;
67804;SDS011;54603;45.638;11.714;2023-04-29T03:14:13;2.20;;;2.00;;
67804;SDS011;54603;45.638;11.714;2023-04-29T03:16:39;2.70;;;2.30;;
67804;SDS011;54603;45.638;11.714;2023-04-29T03:19:04;2.80;;;2.40;;
67804;SDS011;54603;45.638;11.714;2023-04-29T03:21:30;3.80;;;2.50;;
67804;SDS011;54603;45.638;11.714;2023-04-29T03:23:56;3.40;;;2.30;;
67804;SDS011;54603;45.638;11.714;2023-04-29T03:26:22;3.70;;;2.90;;
67804;SDS011;54603;45.638;11.714;2023-04-29T03:28:49;2.80;;;2.40;;
67804;SDS011;54603;45.638;11.714;2023-04-29T03:31:15;2.00;;;1.80;;
67804;SDS011;54603;45.638;11.714;2023-04-29T03:33:41;3.00;;;2.30;;
67804;SDS011;54603;45.638;11.714;2023-04-29T03:36:07;3.90;;;2.30;;
67804;SDS011;54603;45.638;11.714;2023-04-29T03:38:33;2.20;;;2.00;;
67804;SDS011;54603;45.638;11.714;2023-04-29T03:40:58;2.20;;;2.00;;
67804;SDS011;54603;45.638;11.714;2023-04-29T03:43:25;2.60;;;1.90;;
67804;SDS011;54603;45.638;11.714;2023-04-29T03:45:50;1.90;;;1.80;;
67804;SDS011;54603;45.638;11.714;2023-04-29T03:48:16;2.70;;;1.90;;
67804;SDS011;54603;45.638;11.714;2023-04-29T03:50:44;2.50;;;2.30;;
67804;SDS011;54603;45.638;11.714;2023-04-29T03:53:11;1.90;;;1.70;;
67804;SDS011;54603;45.638;11.714;2023-04-29T03:55:38;2.40;;;1.90;;
67804;SDS011;54603;45.638;11.714;2023-04-29T03:58:04;4.70;;;2.60;;
67804;SDS011;54603;45.638;11.714;2023-04-29T04:00:30;2.30;;;2.10;;
67804;SDS011;54603;45.638;11.714;2023-04-29T04:02:56;2.10;;;1.90;;
67804;SDS011;54603;45.638;11.714;2023-04-29T04:05:22;2.10;;;1.90;;
67804;SDS011;54603;45.638;11.714;2023-04-29T04:07:50;2.30;;;1.90;;
67804;SDS011;54603;45.638;11.714;2023-04-29T04:10:17;2.20;;;1.80;;
67804;SDS011;54603;45.638;11.714;2023-04-29T04:12:44;6.10;;;2.30;;
67804;SDS011;54603;45.638;11.714;2023-04-29T04:15:10;2.50;;;1.70;;
67804;SDS011;54603;45.638;11.714;2023-04-29T04:17:35;2.50;;;1.70;;
67804;SDS011;54603;45.638;11.714;2023-04-29T04:20:01;2.30;;;2.10;;
67804;SDS011;54603;45.638;11.714;2023-04-29T04:22:27;3.20;;;2.40;;
67804;SDS011;54603;45.638;11.714;2023-04-29T04:24:56;2.70;;;2.30;;
67804;SDS011;54603;45.638;11.714;2023-04-29T04:27:22;3.50;;;2.10;;
67804;SDS011;54603;45.638;11.714;2023-04-29T04:29:51;2.60;;;2.40;;
67804;SDS011;54603;45.638;11.714;2023-04-29T04:32:22;3.10;;;2.50;;
67804;SDS011;54603;45.638;11.714;2023-04-29T04:34:57;3.10;;;2.70;;
67804;SDS011;54603;45.638;11.714;2023-04-29T04:37:23;2.60;;;2.00;;
67804;SDS011;54603;45.638;11.714;2023-04-29T04:39:48;3.00;;;2.30;;
67804;SDS011;54603;45.638;11.714;2023-04-29T04:42:14;3.00;;;2.70;;
67804;SDS011;54603;45.638;11.714;2023-04-29T04:44:40;3.30;;;2.40;;
67804;SDS011;54603;45.638;11.714;2023-04-29T04:47:06;2.20;;;2.00;;
67804;SDS011;54603;45.638;11.714;2023-04-29T04:49:31;2.60;;;2.20;;
67804;SDS011;54603;45.638;11.714;2023-04-29T04:51:58;2.40;;;2.20;;
67804;SDS011;54603;45.638;11.714;2023-04-29T04:54:23;2.60;;;2.10;;
67804;SDS011;54603;45.638;11.714;2023-04-29T04:56:49;2.70;;;2.10;;
67804;SDS011;54603;45.638;11.714;2023-04-29T04:59:17;2.60;;;2.20;;
67804;SDS011;54603;45.638;11.714;2023-04-29T05:01:42;2.60;;;2.40;;
67804;SDS011;54603;45.638;11.714;2023-04-29T05:04:08;2.60;;;2.30;;
67804;SDS011;54603;45.638;11.714;2023-04-29T05:06:34;2.80;;;2.10;;
67804;SDS011;54603;45.638;11.714;2023-04-29T05:09:00;3.80;;;2.20;;
67804;SDS011;54603;45.638;11.714;2023-04-29T05:11:25;2.90;;;2.60;;
67804;SDS011;54603;45.638;11.714;2023-04-29T05:13:51;2.70;;;2.50;;
67804;SDS011;54603;45.638;11.714;2023-04-29T05:16:16;2.30;;;2.10;;
67804;SDS011;54603;45.638;11.714;2023-04-29T05:18:42;2.10;;;1.90;;
67804;SDS011;54603;45.638;11.714;2023-04-29T05:21:10;2.20;;;2.00;;
67804;SDS011;54603;45.638;11.714;2023-04-29T05:23:37;2.30;;;2.10;;
67804;SDS011;54603;45.638;11.714;2023-04-29T05:26:05;3.80;;;2.20;;
67804;SDS011;54603;45.638;11.714;2023-04-29T05:28:35;3.60;;;2.40;;
67804;SDS011;54603;45.638;11.714;2023-04-29T05:31:06;9.40;;;1.90;;
67804;SDS011;54603;45.638;11.714;2023-04-29T05:33:37;6.00;;;2.20;;
67804;SDS011;54603;45.638;11.714;2023-04-29T05:36:04;4.80;;;1.80;;
67804;SDS011;54603;45.638;11.714;2023-04-29T05:38:32;2.30;;;2.10;;
67804;SDS011;54603;45.638;11.714;2023-04-29T05:41:00;2.90;;;2.20;;
67804;SDS011;54603;45.638;11.714;2023-04-29T05:43:28;2.80;;;1.90;;
67804;SDS011;54603;45.638;11.714;2023-04-29T05:45:54;3.20;;;1.90;;
67804;SDS011;54603;45.638;11.714;2023-04-29T05:48:21;2.90;;;1.80;;
67804;SDS011;54603;45.638;11.714;2023-04-29T05:50:49;3.70;;;1.90;;
67804;SDS011;54603;45.638;11.714;2023-04-29T05:53:15;2.60;;;2.20;;
67804;SDS011;54603;45.638;11.714;2023-04-29T05:55:41;3.40;;;1.60;;
67804;SDS011;54603;45.638;11.714;2023-04-29T05:58:09;2.90;;;1.70;;
67804;SDS011;54603;45.638;11.714;2023-04-29T06:00:36;2.70;;;1.70;;
67804;SDS011;54603;45.638;11.714;2023-04-29T06:03:02;4.00;;;1.80;;
67804;SDS011;54603;45.638;11.714;2023-04-29T06:05:27;2.90;;;1.80;;
67804;SDS011;54603;45.638;11.714;2023-04-29T06:07:54;3.50;;;1.90;;
67804;SDS011;54603;45.638;11.714;2023-04-29T06:10:27;2.80;;;2.20;;
67804;SDS011;54603;45.638;11.714;2023-04-29T06:12:56;4.70;;;1.70;;
67804;SDS011;54603;45.638;11.714;2023-04-29T06:15:25;2.20;;;1.90;;
67804;SDS011;54603;45.638;11.714;2023-04-29T06:17:57;1.90;;;1.70;;
67804;SDS011;54603;45.638;11.714;2023-04-29T06:20:24;2.70;;;1.80;;
67804;SDS011;54603;45.638;11.714;2023-04-29T06:22:52;4.00;;;2.10;;
67804;SDS011;54603;45.638;11.714;2023-04-29T06:25:19;2.30;;;2.00;;
67804;SDS011;54603;45.638;11.714;2023-04-29T06:27:45;8.60;;;2.10;;
67804;SDS011;54603;45.638;11.714;2023-04-29T06:30:12;2.90;;;2.20;;
67804;SDS011;54603;45.638;11.714;2023-04-29T06:32:38;2.00;;;1.80;;
67804;SDS011;54603;45.638;11.714;2023-04-29T06:35:04;2.60;;;2.00;;
67804;SDS011;54603;45.638;11.714;2023-04-29T06:37:30;4.40;;;1.90;;
67804;SDS011;54603;45.638;11.714;2023-04-29T06:39:56;1.90;;;1.80;;
67804;SDS011;54603;45.638;11.714;2023-04-29T06:42:21;2.20;;;2.00;;
67804;SDS011;54603;45.638;11.714;2023-04-29T06:44:47;6.80;;;2.00;;
67804;SDS011;54603;45.638;11.714;2023-04-29T06:47:12;6.60;;;2.50;;
67804;SDS011;54603;45.638;11.714;2023-04-29T06:49:39;3.10;;;1.90;;
67804;SDS011;54603;45.638;11.714;2023-04-29T06:52:04;4.40;;;2.00;;
67804;SDS011;54603;45.638;11.714;2023-04-29T06:54:30;2.20;;;1.70;;
67804;SDS011;54603;45.638;11.714;2023-04-29T06:56:55;3.30;;;1.90;;
67804;SDS011;54603;45.638;11.714;2023-04-29T06:59:22;2.40;;;2.00;;
67804;SDS011;54603;45.638;11.714;2023-04-29T07:01:48;2.10;;;1.70;;
67804;SDS011;54603;45.638;11.714;2023-04-29T07:04:16;2.80;;;2.00;;
67804;SDS011;54603;45.638;11.714;2023-04-29T07:06:42;2.80;;;2.00;;
67804;SDS011;54603;45.638;11.714;2023-04-29T07:09:11;3.80;;;2.70;;
67804;SDS011;54603;45.638;11.714;2023-04-29T07:11:38;4.00;;;3.10;;
67804;SDS011;54603;45.638;11.714;2023-04-29T07:14:04;4.70;;;2.80;;
67804;SDS011;54603;45.638;11.714;2023-04-29T07:16:31;2.90;;;2.20;;
67804;SDS011;54603;45.638;11.714;2023-04-29T07:18:57;4.10;;;2.30;;
67804;SDS011;54603;45.638;11.714;2023-04-29T07:21:23;3.60;;;2.50;;
67804;SDS011;54603;45.638;11.714;2023-04-29T07:23:49;2.50;;;2.10;;
67804;SDS011;54603;45.638;11.714;2023-04-29T07:26:15;2.50;;;2.20;;
67804;SDS011;54603;45.638;11.714;2023-04-29T07:28:42;3.30;;;2.90;;
67804;SDS011;54603;45.638;11.714;2023-04-29T07:31:08;4.40;;;3.10;;
67804;SDS011;54603;45.638;11.714;2023-04-29T07:33:36;4.10;;;3.00;;
67804;SDS011;54603;45.638;11.714;2023-04-29T07:36:02;4.60;;;2.30;;
67804;SDS011;54603;45.638;11.714;2023-04-29T07:38:28;2.90;;;2.50;;
67804;SDS011;54603;45.638;11.714;2023-04-29T07:40:54;4.10;;;2.30;;
67804;SDS011;54603;45.638;11.714;2023-04-29T07:43:20;2.80;;;2.10;;
67804;SDS011;54603;45.638;11.714;2023-04-29T07:45:47;3.40;;;2.70;;
67804;SDS011;54603;45.638;11.714;2023-04-29T07:48:13;3.10;;;2.50;;
67804;SDS011;54603;45.638;11.714;2023-04-29T07:50:38;3.50;;;2.00;;
67804;SDS011;54603;45.638;11.714;2023-04-29T07:53:04;4.50;;;2.70;;
67804;SDS011;54603;45.638;11.714;2023-04-29T07:55:30;3.80;;;2.40;;
67804;SDS011;54603;45.638;11.714;2023-04-29T07:57:56;4.10;;;2.40;;
67804;SDS011;54603;45.638;11.714;2023-04-29T08:00:22;3.00;;;2.00;;
67804;SDS011;54603;45.638;11.714;2023-04-29T08:02:54;2.70;;;2.50;;
67804;SDS011;54603;45.638;11.714;2023-04-29T08:05:20;3.60;;;2.40;;
67804;SDS011;54603;45.638;11.714;2023-04-29T08:07:47;2.30;;;2.10;;
67804;SDS011;54603;45.638;11.714;2023-04-29T08:10:13;3.40;;;2.10;;
67804;SDS011;54603;45.638;11.714;2023-04-29T08:12:40;4.60;;;3.70;;
67804;SDS011;54603;45.638;11.714;2023-04-29T08:15:32;5.90;;;2.50;;
67804;SDS011;54603;45.638;11.714;2023-04-29T08:18:01;3.20;;;2.30;;
67804;SDS011;54603;45.638;11.714;2023-04-29T08:20:33;3.20;;;2.60;;
67804;SDS011;54603;45.638;11.714;2023-04-29T08:22:58;3.50;;;3.00;;
67804;SDS011;54603;45.638;11.714;2023-04-29T08:25:26;4.30;;;3.00;;
67804;SDS011;54603;45.638;11.714;2023-04-29T08:27:53;4.90;;;3.90;;
67804;SDS011;54603;45.638;11.714;2023-04-29T08:30:18;4.70;;;2.70;;
67804;SDS011;54603;45.638;11.714;2023-04-29T08:32:44;5.70;;;4.60;;
67804;SDS011;54603;45.638;11.714;2023-04-29T08:35:10;5.10;;;2.80;;
67804;SDS011;54603;45.638;11.714;2023-04-29T08:37:35;5.70;;;2.70;;
67804;SDS011;54603;45.638;11.714;2023-04-29T08:40:02;7.00;;;2.80;;
67804;SDS011;54603;45.638;11.714;2023-04-29T08:42:34;5.70;;;2.80;;
67804;SDS011;54603;45.638;11.714;2023-04-29T08:45:02;6.40;;;2.70;;
67804;SDS011;54603;45.638;11.714;2023-04-29T08:47:29;4.60;;;2.60;;
67804;SDS011;54603;45.638;11.714;2023-04-29T08:49:55;5.10;;;3.00;;
67804;SDS011;54603;45.638;11.714;2023-04-29T08:52:53;7.00;;;3.80;;
67804;SDS011;54603;45.638;11.714;2023-04-29T08:55:48;4.60;;;3.40;;
67804;SDS011;54603;45.638;11.714;2023-04-29T08:58:22;6.60;;;2.90;;
67804;SDS011;54603;45.638;11.714;2023-04-29T09:01:15;8.80;;;3.20;;
67804;SDS011;54603;45.638;11.714;2023-04-29T09:07:12;5.10;;;2.70;;
67804;SDS011;54603;45.638;11.714;2023-04-29T09:10:19;8.20;;;2.30;;
67804;SDS011;54603;45.638;11.714;2023-04-29T09:13:02;6.60;;;2.30;;
67804;SDS011;54603;45.638;11.714;2023-04-29T09:15:34;10.30;;;2.30;;
67804;SDS011;54603;45.638;11.714;2023-04-29T09:18:01;3.30;;;2.50;;
67804;SDS011;54603;45.638;11.714;2023-04-29T09:20:27;4.80;;;2.20;;
67804;SDS011;54603;45.638;11.714;2023-04-29T09:22:58;3.80;;;2.20;;
67804;SDS011;54603;45.638;11.714;2023-04-29T09:25:26;7.10;;;2.30;;
67804;SDS011;54603;45.638;11.714;2023-04-29T09:27:54;4.70;;;3.50;;
67804;SDS011;54603;45.638;11.714;2023-04-29T09:30:20;6.10;;;3.80;;
67804;SDS011;54603;45.638;11.714;2023-04-29T09:33:02;3.80;;;2.80;;
67804;SDS011;54603;45.638;11.714;2023-04-29T09:35:31;5.10;;;3.70;;
67804;SDS011;54603;45.638;11.714;2023-04-29T09:38:09;6.60;;;2.70;;
67804;SDS011;54603;45.638;11.714;2023-04-29T09:40:36;3.10;;;2.80;;
67804;SDS011;54603;45.638;11.714;2023-04-29T09:43:02;3.40;;;2.50;;
67804;SDS011;54603;45.638;11.714;2023-04-29T09:45:35;4.90;;;2.70;;
67804;SDS011;54603;45.638;11.714;2023-04-29T09:48:05;6.00;;;3.30;;
67804;SDS011;54603;45.638;11.714;2023-04-29T09:50:32;5.40;;;2.70;;
67804;SDS011;54603;45.638;11.714;2023-04-29T09:53:02;6.20;;;4.90;;
67804;SDS011;54603;45.638;11.714;2023-04-29T09:55:57;6.00;;;3.20;;
67804;SDS011;54603;45.638;11.714;2023-04-29T09:58:48;6.20;;;4.10;;
67804;SDS011;54603;45.638;11.714;2023-04-29T10:01:22;11.00;;;5.50;;
67804;SDS011;54603;45.638;11.714;2023-04-29T10:03:53;9.00;;;4.80;;
67804;SDS011;54603;45.638;11.714;2023-04-29T10:06:33;6.50;;;4.90;;
67804;SDS011;54603;45.638;11.714;2023-04-29T10:09:20;8.90;;;5.00;;
67804;SDS011;54603;45.638;11.714;2023-04-29T10:11:47;6.40;;;4.00;;
67804;SDS011;54603;45.638;11.714;2023-04-29T10:14:20;6.10;;;4.50;;
67804;SDS011;54603;45.638;11.714;2023-04-29T10:16:58;8.50;;;4.50;;
67804;SDS011;54603;45.638;11.714;2023-04-29T10:19:46;6.70;;;4.30;;
67804;SDS011;54603;45.638;11.714;2023-04-29T10:25:31;6.80;;;3.30;;
67804;SDS011;54603;45.638;11.714;2023-04-29T10:28:34;8.00;;;4.20;;
67804;SDS011;54603;45.638;11.714;2023-04-29T10:31:26;6.30;;;4.50;;
67804;SDS011;54603;45.638;11.714;2023-04-29T10:34:36;7.80;;;5.40;;
67804;SDS011;54603;45.638;11.714;2023-04-29T10:37:47;9.20;;;4.10;;
67804;SDS011;54603;45.638;11.714;2023-04-29T10:40:44;6.10;;;4.70;;
67804;SDS011;54603;45.638;11.714;2023-04-29T10:44:09;7.00;;;4.60;;
67804;SDS011;54603;45.638;11.714;2023-04-29T10:47:35;6.10;;;5.00;;
67804;SDS011;54603;45.638;11.714;2023-04-29T10:53:18;10.20;;;5.50;;
67804;SDS011;54603;45.638;11.714;2023-04-29T10:56:34;7.30;;;4.80;;
67804;SDS011;54603;45.638;11.714;2023-04-29T10:59:11;6.50;;;4.90;;
67804;SDS011;54603;45.638;11.714;2023-04-29T11:01:48;7.90;;;5.50;;
67804;SDS011;54603;45.638;11.714;2023-04-29T11:04:23;6.90;;;3.50;;
67804;SDS011;54603;45.638;11.714;2023-04-29T11:07:25;7.60;;;3.30;;
67804;SDS011;54603;45.638;11.714;2023-04-29T11:09:49;7.20;;;4.10;;
67804;SDS011;54603;45.638;11.714;2023-04-29T11:12:26;7.30;;;5.30;;
67804;SDS011;54603;45.638;11.714;2023-04-29T11:15:03;13.30;;;6.40;;
67804;SDS011;54603;45.638;11.714;2023-04-29T11:17:37;8.10;;;3.60;;
67804;SDS011;54603;45.638;11.714;2023-04-29T11:22:38;12.60;;;3.90;;
67804;SDS011;54603;45.638;11.714;2023-04-29T11:25:18;7.80;;;5.40;;
67804;SDS011;54603;45.638;11.714;2023-04-29T11:28:06;5.30;;;3.40;;
67804;SDS011;54603;45.638;11.714;2023-04-29T11:30:38;6.10;;;3.00;;
67804;SDS011;54603;45.638;11.714;2023-04-29T11:33:12;5.50;;;3.00;;
67804;SDS011;54603;45.638;11.714;2023-04-29T11:36:00;6.50;;;3.40;;
67804;SDS011;54603;45.638;11.714;2023-04-29T11:38:38;6.70;;;5.20;;
67804;SDS011;54603;45.638;11.714;2023-04-29T11:41:07;10.50;;;5.10;;
67804;SDS011;54603;45.638;11.714;2023-04-29T11:43:45;7.30;;;5.00;;
67804;SDS011;54603;45.638;11.714;2023-04-29T11:48:58;6.40;;;3.80;;
67804;SDS011;54603;45.638;11.714;2023-04-29T11:51:46;7.10;;;4.20;;
67804;SDS011;54603;45.638;11.714;2023-04-29T11:54:20;6.90;;;4.40;;
67804;SDS011;54603;45.638;11.714;2023-04-29T11:56:57;8.10;;;4.90;;
67804;SDS011;54603;45.638;11.714;2023-04-29T11:59:24;7.50;;;3.60;;
67804;SDS011;54603;45.638;11.714;2023-04-29T12:01:58;7.60;;;5.90;;
67804;SDS011;54603;45.638;11.714;2023-04-29T12:04:30;10.40;;;4.60;;
67804;SDS011;54603;45.638;11.714;2023-04-29T12:07:08;6.20;;;3.30;;
67804;SDS011;54603;45.638;11.714;2023-04-29T12:09:43;7.00;;;4.10;;
67804;SDS011;54603;45.638;11.714;2023-04-29T12:12:12;9.30;;;4.00;;
67804;SDS011;54603;45.638;11.714;2023-04-29T12:15:02;7.00;;;4.50;;
67804;SDS011;54603;45.638;11.714;2023-04-29T12:17:42;10.00;;;3.70;;
67804;SDS011;54603;45.638;11.714;2023-04-29T12:20:24;7.10;;;4.80;;
67804;SDS011;54603;45.638;11.714;2023-04-29T12:23:20;5.60;;;3.30;;
67804;SDS011;54603;45.638;11.714;2023-04-29T12:26:10;5.30;;;3.40;;
67804;SDS011;54603;45.638;11.714;2023-04-29T12:28:41;8.70;;;4.70;;
67804;SDS011;54603;45.638;11.714;2023-04-29T12:31:41;9.10;;;4.40;;
67804;SDS011;54603;45.638;11.714;2023-04-29T12:34:23;8.80;;;5.00;;
67804;SDS011;54603;45.638;11.714;2023-04-29T12:37:32;8.00;;;3.90;;
67804;SDS011;54603;45.638;11.714;2023-04-29T12:40:59;9.80;;;6.20;;
67804;SDS011;54603;45.638;11.714;2023-04-29T12:43:30;6.30;;;3.80;;
67804;SDS011;54603;45.638;11.714;2023-04-29T12:46:04;6.20;;;4.60;;
67804;SDS011;54603;45.638;11.714;2023-04-29T12:48:34;7.40;;;5.00;;
67804;SDS011;54603;45.638;11.714;2023-04-29T12:51:03;7.90;;;5.30;;
67804;SDS011;54603;45.638;11.714;2023-04-29T12:53:30;10.00;;;4.60;;
67804;SDS011;54603;45.638;11.714;2023-04-29T12:55:56;8.10;;;4.70;;
67804;SDS011;54603;45.638;11.714;2023-04-29T12:58:22;11.00;;;4.50;;
67804;SDS011;54603;45.638;11.714;2023-04-29T13:00:48;16.20;;;6.30;;
67804;SDS011;54603;45.638;11.714;2023-04-29T13:03:15;9.50;;;5.80;;
67804;SDS011;54603;45.638;11.714;2023-04-29T13:05:43;7.50;;;4.10;;
67804;SDS011;54603;45.638;11.714;2023-04-29T13:08:11;10.40;;;4.30;;
67804;SDS011;54603;45.638;11.714;2023-04-29T13:10:40;12.00;;;5.40;;
67804;SDS011;54603;45.638;11.714;2023-04-29T13:13:07;8.00;;;4.40;;
67804;SDS011;54603;45.638;11.714;2023-04-29T13:15:35;5.70;;;3.30;;
67804;SDS011;54603;45.638;11.714;2023-04-29T13:18:04;9.90;;;4.30;;
67804;SDS011;54603;45.638;11.714;2023-04-29T13:20:33;10.50;;;3.90;;
67804;SDS011;54603;45.638;11.714;2023-04-29T13:22:59;5.40;;;3.30;;
67804;SDS011;54603;45.638;11.714;2023-04-29T13:25:25;8.20;;;3.20;;
67804;SDS011;54603;45.638;11.714;2023-04-29T13:27:55;7.20;;;4.20;;
67804;SDS011;54603;45.638;11.714;2023-04-29T13:30:21;7.70;;;3.20;;
67804;SDS011;54603;45.638;11.714;2023-04-29T13:32:47;7.10;;;3.80;;
67804;SDS011;54603;45.638;11.714;2023-04-29T13:35:14;8.40;;;4.50;;
67804;SDS011;54603;45.638;11.714;2023-04-29T13:37:42;5.90;;;3.70;;
67804;SDS011;54603;45.638;11.714;2023-04-29T13:40:11;6.70;;;3.50;;
67804;SDS011;54603;45.638;11.714;2023-04-29T13:42:38;4.80;;;3.20;;
67804;SDS011;54603;45.638;11.714;2023-04-29T13:45:07;9.90;;;3.00;;
67804;SDS011;54603;45.638;11.714;2023-04-29T13:47:34;5.50;;;2.80;;
67804;SDS011;54603;45.638;11.714;2023-04-29T13:50:01;6.10;;;3.00;;
67804;SDS011;54603;45.638;11.714;2023-04-29T13:52:29;7.60;;;3.10;;
67804;SDS011;54603;45.638;11.714;2023-04-29T13:55:05;7.80;;;3.20;;
67804;SDS011;54603;45.638;11.714;2023-04-29T13:57:32;5.50;;;3.50;;
67804;SDS011;54603;45.638;11.714;2023-04-29T14:00:00;5.50;;;3.40;;
67804;SDS011;54603;45.638;11.714;2023-04-29T14:02:27;6.90;;;4.40;;
67804;SDS011;54603;45.638;11.714;2023-04-29T14:04:52;5.20;;;2.90;;
67804;SDS011;54603;45.638;11.714;2023-04-29T14:07:18;6.10;;;4.00;;
67804;SDS011;54603;45.638;11.714;2023-04-29T14:09:43;5.70;;;3.50;;
67804;SDS011;54603;45.638;11.714;2023-04-29T14:12:09;6.10;;;3.30;;
67804;SDS011;54603;45.638;11.714;2023-04-29T14:14:37;5.50;;;3.10;;
67804;SDS011;54603;45.638;11.714;2023-04-29T14:17:03;4.60;;;3.20;;
67804;SDS011;54603;45.638;11.714;2023-04-29T14:19:28;7.70;;;3.00;;
67804;SDS011;54603;45.638;11.714;2023-04-29T14:21:54;5.70;;;3.20;;
67804;SDS011;54603;45.638;11.714;2023-04-29T14:24:19;8.90;;;3.70;;
67804;SDS011;54603;45.638;11.714;2023-04-29T14:26:46;8.50;;;4.30;;
67804;SDS011;54603;45.638;11.714;2023-04-29T14:29:12;5.00;;;3.10;;
67804;SDS011;54603;45.638;11.714;2023-04-29T14:31:37;6.10;;;3.70;;
67804;SDS011;54603;45.638;11.714;2023-04-29T14:34:04;6.70;;;3.70;;
67804;SDS011;54603;45.638;11.714;2023-04-29T14:36:30;5.00;;;3.40;;
67804;SDS011;54603;45.638;11.714;2023-04-29T14:38:58;6.90;;;3.00;;
67804;SDS011;54603;45.638;11.714;2023-04-29T14:41:25;3.70;;;2.60;;
67804;SDS011;54603;45.638;11.714;2023-04-29T14:43:51;5.20;;;3.40;;
67804;SDS011;54603;45.638;11.714;2023-04-29T14:46:17;4.90;;;2.90;;
67804;SDS011;54603;45.638;11.714;2023-04-29T14:48:42;4.30;;;3.00;;
67804;SDS011;54603;45.638;11.714;2023-04-29T14:51:08;4.00;;;2.80;;
67804;SDS011;54603;45.638;11.714;2023-04-29T14:53:34;4.00;;;2.90;;
67804;SDS011;54603;45.638;11.714;2023-04-29T14:56:00;5.60;;;2.80;;
67804;SDS011;54603;45.638;11.714;2023-04-29T14:58:25;5.70;;;2.90;;
67804;SDS011;54603;45.638;11.714;2023-04-29T15:00:51;5.50;;;3.00;;
67804;SDS011;54603;45.638;11.714;2023-04-29T15:03:17;4.60;;;3.30;;
67804;SDS011;54603;45.638;11.714;2023-04-29T15:05:43;4.20;;;2.90;;
67804;SDS011;54603;45.638;11.714;2023-04-29T15:08:09;4.20;;;3.00;;
67804;SDS011;54603;45.638;11.714;2023-04-29T15:10:35;5.60;;;3.10;;
67804;SDS011;54603;45.638;11.714;2023-04-29T15:13:01;6.20;;;3.40;;
67804;SDS011;54603;45.638;11.714;2023-04-29T15:15:27;8.50;;;3.20;;
67804;SDS011;54603;45.638;11.714;2023-04-29T15:17:53;5.00;;;3.70;;
67804;SDS011;54603;45.638;11.714;2023-04-29T15:20:20;5.30;;;2.80;;